createdAt,value
2022-11-01T00:02:03.360Z,19.10
2022-11-01T00:04:33.076Z,19.20
2022-11-01T00:07:01.157Z,19.20
2022-11-01T00:09:29.165Z,19.20
2022-11-01T00:11:57.198Z,19.20
2022-11-01T00:14:25.259Z,19.10
2022-11-01T00:16:53.410Z,19.20
2022-11-01T00:19:23.717Z,19.00
2022-11-01T00:21:53.134Z,19.00
2022-11-01T00:24:21.228Z,19.00
2022-11-01T00:29:17.635Z,19.00
2022-11-01T00:31:48.067Z,18.90
2022-11-01T00:34:16.698Z,18.90
2022-11-01T00:36:45.121Z,18.90
2022-11-01T00:39:15.503Z,18.80
2022-11-01T00:41:45.723Z,18.90
2022-11-01T00:44:15.955Z,18.80
2022-11-01T00:46:44.022Z,18.80
2022-11-01T00:49:13.276Z,18.80
2022-11-01T00:51:41.552Z,18.70
2022-11-01T00:54:09.837Z,18.70
2022-11-01T00:56:39.643Z,18.70
2022-11-01T00:59:07.948Z,18.60
2022-11-01T01:01:36.397Z,18.50
2022-11-01T01:04:05.075Z,18.40
2022-11-01T01:06:33.488Z,18.30
2022-11-01T01:09:02.571Z,18.50
2022-11-01T01:11:32.977Z,18.50
2022-11-01T01:14:04.971Z,18.50
2022-11-01T01:16:33.381Z,18.60
2022-11-01T01:19:01.641Z,18.60
2022-11-01T01:21:29.921Z,18.60
2022-11-01T01:23:58.142Z,18.70
2022-11-01T01:26:26.326Z,18.60
2022-11-01T01:28:55.857Z,18.60
2022-11-01T01:31:25.701Z,18.70
2022-11-01T01:33:53.952Z,18.70
2022-11-01T01:36:22.185Z,18.60
2022-11-01T01:38:52.655Z,18.60
2022-11-01T01:41:38.413Z,18.70
2022-11-01T01:44:40.051Z,18.80
2022-11-01T01:47:17.496Z,18.80
2022-11-01T01:49:46.590Z,18.70
2022-11-01T01:52:15.476Z,18.70
2022-11-01T01:54:44.300Z,18.80
2022-11-01T01:57:13.194Z,18.90
2022-11-01T01:59:42.205Z,19.00
2022-11-01T02:02:13.326Z,19.00
2022-11-01T02:04:44.999Z,18.90
2022-11-01T02:07:13.715Z,18.90
2022-11-01T02:09:43.001Z,19.00
2022-11-01T02:12:13.592Z,19.00
2022-11-01T02:14:43.389Z,19.10
2022-11-01T02:17:21.129Z,19.10
2022-11-01T02:20:22.851Z,19.10
2022-11-01T02:23:12.842Z,19.10
2022-11-01T02:26:01.542Z,19.10
2022-11-01T02:28:46.239Z,19.10
2022-11-01T02:31:34.044Z,19.00
2022-11-01T02:34:08.851Z,19.10
2022-11-01T02:36:45.489Z,19.00
2022-11-01T02:39:21.264Z,19.00
2022-11-01T02:41:55.726Z,19.00
2022-11-01T02:44:27.466Z,19.10
2022-11-01T02:47:03.698Z,19.10
2022-11-01T02:49:37.167Z,19.10
2022-11-01T02:52:08.761Z,19.10
2022-11-01T02:54:41.525Z,19.10
2022-11-01T02:57:27.041Z,19.20
2022-11-01T03:00:02.346Z,19.20
2022-11-01T03:02:41.610Z,19.20
2022-11-01T03:05:18.222Z,19.20
2022-11-01T03:07:52.680Z,19.20
2022-11-01T03:10:24.031Z,19.20
2022-11-01T03:13:00.470Z,19.10
2022-11-01T03:15:33.759Z,19.20
2022-11-01T03:18:05.725Z,19.10
2022-11-01T03:20:48.495Z,19.10
2022-11-01T03:23:20.207Z,19.10
2022-11-01T03:25:56.336Z,19.10
2022-11-01T03:28:28.065Z,19.10
2022-11-01T03:31:01.764Z,19.10
2022-11-01T03:33:31.923Z,19.10
2022-11-01T03:36:11.854Z,18.90
2022-11-01T03:38:50.658Z,18.90
2022-11-01T03:41:20.601Z,18.90
2022-11-01T03:43:49.285Z,19.00
2022-11-01T03:46:17.886Z,19.00
2022-11-01T03:48:48.371Z,19.00
2022-11-01T03:51:18.064Z,18.90
2022-11-01T03:53:46.389Z,19.00
2022-11-01T03:56:14.747Z,18.90
2022-11-01T03:58:44.255Z,18.90
2022-11-01T04:01:14.462Z,18.80
2022-11-01T04:03:43.288Z,18.80
2022-11-01T04:06:11.690Z,18.90
2022-11-01T04:08:42.167Z,18.70
2022-11-01T04:11:10.538Z,18.70
2022-11-01T04:13:39.090Z,18.60
2022-11-01T04:16:24.937Z,18.70
2022-11-01T04:19:09.658Z,18.70
2022-11-01T04:21:40.739Z,18.80
2022-11-01T04:24:11.372Z,18.90
2022-11-01T04:26:42.017Z,18.80
2022-11-01T04:29:10.321Z,18.90
2022-11-01T04:31:38.580Z,19.00
2022-11-01T04:34:07.130Z,19.00
2022-11-01T04:36:35.447Z,19.00
2022-11-01T04:39:05.961Z,19.10
2022-11-01T04:41:35.752Z,19.10
2022-11-01T04:44:04.059Z,19.10
2022-11-01T04:46:32.689Z,19.10
2022-11-01T04:49:00.966Z,19.10
2022-11-01T04:51:31.438Z,19.10
2022-11-01T04:53:59.671Z,19.10
2022-11-01T04:56:27.887Z,19.10
2022-11-01T04:58:58.326Z,19.10
2022-11-01T05:01:26.833Z,19.10
2022-11-01T05:03:55.821Z,19.20
2022-11-01T05:06:24.098Z,19.20
2022-11-01T05:08:52.359Z,19.20
2022-11-01T05:11:25.487Z,19.20
2022-11-01T05:13:53.935Z,19.00
2022-11-01T05:16:23.583Z,18.90
2022-11-01T05:18:51.802Z,19.00
2022-11-01T05:21:20.045Z,19.00
2022-11-01T05:23:49.774Z,19.10
2022-11-01T05:26:20.437Z,19.10
2022-11-01T05:28:49.150Z,19.10
2022-11-01T05:31:17.349Z,19.10
2022-11-01T05:33:47.023Z,19.20
2022-11-01T05:36:17.636Z,19.10
2022-11-01T05:38:45.845Z,19.10
2022-11-01T05:43:47.209Z,19.20
2022-11-01T05:46:15.429Z,19.30
2022-11-01T05:48:44.209Z,19.20
2022-11-01T05:51:13.871Z,19.20
2022-11-01T05:53:42.159Z,19.20
2022-11-01T05:56:10.587Z,19.30
2022-11-01T05:58:38.861Z,19.30
2022-11-01T06:01:08.738Z,19.30
2022-11-01T06:03:38.139Z,19.30
2022-11-01T06:06:06.853Z,19.40
2022-11-01T06:08:39.026Z,19.40
2022-11-01T06:11:08.267Z,19.50
2022-11-01T06:13:36.726Z,19.40
2022-11-01T06:16:07.545Z,19.40
2022-11-01T06:18:35.750Z,19.40
2022-11-01T06:21:04.299Z,19.40
2022-11-01T06:23:32.510Z,19.40
2022-11-01T06:26:05.554Z,19.40
2022-11-01T06:28:33.911Z,19.30
2022-11-01T06:31:02.752Z,19.40
2022-11-01T06:33:31.057Z,19.30
2022-11-01T06:35:59.516Z,19.40
2022-11-01T06:38:30.495Z,19.50
2022-11-01T06:41:00.875Z,19.50
2022-11-01T06:43:30.463Z,19.60
2022-11-01T06:46:01.061Z,19.40
2022-11-01T06:48:29.784Z,19.50
2022-11-01T06:50:58.415Z,19.70
2022-11-01T06:53:26.810Z,19.60
2022-11-01T06:55:59.972Z,19.60
2022-11-01T06:58:28.333Z,19.50
2022-11-01T07:00:58.030Z,19.60
2022-11-01T07:03:29.403Z,19.50
2022-11-01T07:06:00.574Z,19.50
2022-11-01T07:08:30.999Z,19.50
2022-11-01T07:10:59.232Z,19.60
2022-11-01T07:13:29.024Z,19.60
2022-11-01T07:15:58.656Z,19.50
2022-11-01T07:18:26.901Z,19.60
2022-11-01T07:20:55.137Z,19.60
2022-11-01T07:23:23.688Z,19.50
2022-11-01T07:25:52.968Z,19.50
2022-11-01T07:28:21.281Z,19.50
2022-11-01T07:30:52.970Z,19.50
2022-11-01T07:33:22.930Z,19.40
2022-11-01T07:35:52.569Z,19.60
2022-11-01T07:38:23.044Z,19.60
2022-11-01T07:40:53.325Z,19.60
2022-11-01T07:43:22.631Z,19.60
2022-11-01T07:45:51.120Z,19.40
2022-11-01T07:48:20.836Z,19.40
2022-11-01T07:50:50.787Z,19.50
2022-11-01T07:53:20.196Z,19.60
2022-11-01T07:55:48.647Z,19.60
2022-11-01T07:58:19.448Z,19.50
2022-11-01T08:00:48.208Z,19.40
2022-11-01T08:03:19.310Z,19.30
2022-11-01T08:05:49.096Z,19.30
2022-11-01T08:08:18.929Z,19.20
2022-11-01T08:10:47.645Z,19.30
2022-11-01T08:13:18.050Z,19.40
2022-11-01T08:15:49.584Z,19.40
2022-11-01T08:18:19.086Z,19.50
2022-11-01T08:20:47.466Z,19.40
2022-11-01T08:23:16.046Z,19.50
2022-11-01T08:25:48.892Z,19.50
2022-11-01T08:28:19.075Z,19.50
2022-11-01T08:30:49.438Z,19.60
2022-11-01T08:33:17.798Z,19.60
2022-11-01T08:35:50.341Z,19.40
2022-11-01T08:38:19.563Z,19.60
2022-11-01T08:40:52.409Z,19.60
2022-11-01T08:43:20.804Z,19.60
2022-11-01T08:45:49.294Z,19.70
2022-11-01T08:48:17.794Z,19.60
2022-11-01T08:50:48.116Z,19.60
2022-11-01T08:53:16.636Z,19.60
2022-11-01T08:55:44.955Z,19.70
2022-11-01T08:58:14.571Z,19.70
2022-11-01T09:00:42.823Z,19.80
2022-11-01T09:03:11.229Z,19.90
2022-11-01T09:05:39.690Z,20.00
2022-11-01T09:08:08.362Z,20.20
2022-11-01T09:10:36.824Z,20.40
2022-11-01T09:13:05.385Z,20.40
2022-11-01T09:15:35.356Z,20.50
2022-11-01T09:18:07.268Z,20.40
2022-11-01T09:20:35.610Z,20.50
2022-11-01T09:23:04.550Z,20.60
2022-11-01T09:25:33.530Z,20.70
2022-11-01T09:28:04.404Z,20.90
2022-11-01T09:30:41.467Z,20.90
2022-11-01T09:33:18.769Z,21.30
2022-11-01T09:35:55.317Z,21.50
2022-11-01T09:38:26.706Z,21.80
2022-11-01T09:41:03.130Z,21.80
2022-11-01T09:43:36.279Z,21.90
2022-11-01T09:46:07.752Z,21.80
2022-11-01T09:48:38.041Z,21.70
2022-11-01T09:51:12.435Z,21.60
2022-11-01T09:53:40.841Z,21.60
2022-11-01T09:56:12.468Z,21.50
2022-11-01T09:58:47.037Z,21.40
2022-11-01T10:01:41.305Z,21.40
2022-11-01T10:04:34.777Z,21.30
2022-11-01T10:07:09.235Z,21.40
2022-11-01T10:09:47.610Z,21.40
2022-11-01T10:12:33.817Z,21.50
2022-11-01T10:15:19.538Z,21.60
2022-11-01T10:17:53.718Z,21.60
2022-11-01T10:20:25.749Z,21.60
2022-11-01T10:22:54.192Z,21.60
2022-11-01T10:25:24.572Z,21.70
2022-11-01T10:28:00.666Z,21.60
2022-11-01T10:30:34.222Z,21.70
2022-11-01T10:33:20.019Z,21.60
2022-11-01T10:35:54.732Z,21.60
2022-11-01T10:38:49.966Z,21.60
2022-11-01T10:41:27.170Z,21.80
2022-11-01T10:43:58.184Z,21.80
2022-11-01T10:46:28.233Z,21.90
2022-11-01T10:48:59.879Z,21.90
2022-11-01T10:51:29.710Z,21.90
2022-11-01T10:54:00.231Z,22.00
2022-11-01T10:56:30.810Z,22.10
2022-11-01T10:59:02.299Z,22.30
2022-11-01T11:01:32.841Z,22.30
2022-11-01T11:04:06.312Z,22.40
2022-11-01T11:06:34.803Z,22.40
2022-11-01T11:09:05.627Z,22.40
2022-11-01T11:11:37.498Z,22.50
2022-11-01T11:14:19.457Z,22.70
2022-11-01T11:16:49.354Z,22.50
2022-11-01T11:19:24.757Z,22.70
2022-11-01T11:21:54.811Z,22.80
2022-11-01T11:24:24.081Z,22.90
2022-11-01T11:26:54.539Z,22.90
2022-11-01T11:29:29.122Z,22.90
2022-11-01T11:31:59.312Z,22.90
2022-11-01T11:34:30.052Z,22.90
2022-11-01T11:36:58.606Z,22.90
2022-11-01T11:39:28.328Z,22.90
2022-11-01T11:42:11.201Z,22.90
2022-11-01T11:44:40.759Z,22.80
2022-11-01T11:47:18.787Z,22.80
2022-11-01T11:49:53.799Z,22.90
2022-11-01T11:52:26.850Z,22.90
2022-11-01T11:54:56.719Z,22.80
2022-11-01T11:57:27.041Z,22.80
2022-11-01T11:59:57.407Z,22.70
2022-11-01T12:02:28.107Z,22.80
2022-11-01T12:05:00.965Z,22.80
2022-11-01T12:07:32.315Z,22.70
2022-11-01T12:10:03.376Z,22.70
2022-11-01T12:12:34.803Z,22.70
2022-11-01T12:15:04.027Z,22.70
2022-11-01T12:17:44.445Z,22.80
2022-11-01T12:20:20.091Z,22.90
2022-11-01T12:22:52.421Z,23.00
2022-11-01T12:25:23.398Z,23.10
2022-11-01T12:27:53.871Z,23.20
2022-11-01T12:30:24.694Z,23.40
2022-11-01T12:32:53.965Z,23.60
2022-11-01T12:35:35.729Z,23.90
2022-11-01T12:38:14.658Z,24.00
2022-11-01T12:40:45.281Z,24.00
2022-11-01T12:43:17.163Z,24.10
2022-11-01T12:45:53.835Z,24.10
2022-11-01T12:48:29.227Z,24.10
2022-11-01T12:51:05.390Z,24.20
2022-11-01T12:53:40.469Z,24.20
2022-11-01T12:56:11.719Z,24.30
2022-11-01T12:58:40.310Z,24.40
2022-11-01T13:01:25.949Z,24.70
2022-11-01T13:04:04.319Z,24.80
2022-11-01T13:06:54.441Z,24.90
2022-11-01T13:09:32.164Z,24.90
2022-11-01T13:12:07.025Z,24.80
2022-11-01T13:14:50.990Z,24.80
2022-11-01T13:17:26.851Z,24.80
2022-11-01T13:20:06.758Z,24.80
2022-11-01T13:22:44.110Z,24.80
2022-11-01T13:25:22.828Z,24.80
2022-11-01T13:27:59.532Z,24.80
2022-11-01T13:30:28.197Z,24.80
2022-11-01T13:33:01.551Z,24.80
2022-11-01T13:35:52.226Z,24.80
2022-11-01T13:38:30.906Z,24.80
2022-11-01T13:41:07.251Z,24.80
2022-11-01T13:43:39.615Z,24.70
2022-11-01T13:46:46.119Z,24.70
2022-11-01T13:49:49.850Z,24.60
2022-11-01T13:52:21.836Z,24.60
2022-11-01T13:54:57.653Z,24.50
2022-11-01T13:57:29.023Z,24.30
2022-11-01T14:00:01.355Z,24.30
2022-11-01T14:02:58.199Z,24.40
2022-11-01T14:05:39.896Z,24.40
2022-11-01T14:08:38.358Z,24.30
2022-11-01T14:11:11.742Z,24.20
2022-11-01T14:13:41.495Z,24.30
2022-11-01T14:16:28.890Z,24.30
2022-11-01T14:19:21.090Z,24.10
2022-11-01T14:21:53.500Z,24.10
2022-11-01T14:24:35.109Z,24.10
2022-11-01T14:27:20.181Z,24.10
2022-11-01T14:29:55.349Z,24.10
2022-11-01T14:32:26.325Z,24.10
2022-11-01T14:35:03.129Z,24.10
2022-11-01T14:37:36.526Z,23.90
2022-11-01T14:40:23.670Z,23.90
2022-11-01T14:42:56.331Z,23.80
2022-11-01T14:45:29.710Z,23.80
2022-11-01T14:48:02.062Z,23.70
2022-11-01T14:50:37.402Z,23.60
2022-11-01T14:53:11.256Z,23.60
2022-11-01T14:55:39.483Z,23.50
2022-11-01T14:58:14.804Z,23.60
2022-11-01T15:00:43.277Z,23.70
2022-11-01T15:03:11.811Z,23.70
2022-11-01T15:05:44.592Z,23.40
2022-11-01T15:08:24.545Z,23.30
2022-11-01T15:10:54.177Z,23.10
2022-11-01T15:13:28.970Z,23.10
2022-11-01T15:16:07.572Z,23.10
2022-11-01T15:18:38.249Z,22.90
2022-11-01T15:21:13.818Z,22.90
2022-11-01T15:23:48.152Z,22.80
2022-11-01T15:26:19.485Z,22.60
2022-11-01T15:28:53.210Z,22.60
2022-11-01T15:31:22.557Z,22.60
2022-11-01T15:33:56.433Z,22.60
2022-11-01T15:36:29.505Z,22.40
2022-11-01T15:38:59.969Z,22.30
2022-11-01T15:41:31.924Z,22.20
2022-11-01T15:44:03.573Z,22.10
2022-11-01T15:46:32.997Z,21.90
2022-11-01T15:49:06.375Z,21.70
2022-11-01T15:51:42.873Z,21.70
2022-11-01T15:54:17.914Z,21.60
2022-11-01T15:56:50.163Z,21.50
2022-11-01T15:59:27.351Z,21.60
2022-11-01T16:01:58.585Z,21.50
2022-11-01T16:04:32.301Z,21.40
2022-11-01T16:07:03.836Z,21.40
2022-11-01T16:09:38.677Z,21.30
2022-11-01T16:12:16.323Z,21.20
2022-11-01T16:14:51.601Z,21.10
2022-11-01T16:17:33.013Z,21.10
2022-11-01T16:20:04.739Z,21.10
2022-11-01T16:22:38.274Z,21.00
2022-11-01T16:25:15.149Z,21.00
2022-11-01T16:27:55.672Z,21.00
2022-11-01T16:30:39.078Z,20.90
2022-11-01T16:33:10.172Z,20.80
2022-11-01T16:35:39.028Z,20.70
2022-11-01T16:38:23.189Z,20.60
2022-11-01T16:40:54.944Z,20.50
2022-11-01T16:43:27.237Z,20.40
2022-11-01T16:45:57.374Z,20.30
2022-11-01T16:48:27.989Z,20.20
2022-11-01T16:50:58.249Z,20.10
2022-11-01T16:53:28.119Z,20.00
2022-11-01T16:56:23.329Z,19.90
2022-11-01T16:58:51.562Z,19.80
2022-11-01T17:01:29.011Z,19.70
2022-11-01T17:04:02.254Z,19.70
2022-11-01T17:06:33.419Z,19.70
2022-11-01T17:09:04.406Z,19.80
2022-11-01T17:11:32.625Z,19.80
2022-11-01T17:14:00.956Z,19.90
2022-11-01T17:16:30.725Z,19.80
2022-11-01T17:19:01.589Z,19.80
2022-11-01T17:21:32.208Z,19.70
2022-11-01T17:24:00.587Z,19.70
2022-11-01T17:26:29.608Z,19.70
2022-11-01T17:28:57.933Z,19.60
2022-11-01T17:31:26.208Z,19.60
2022-11-01T17:33:55.872Z,19.50
2022-11-01T17:36:24.258Z,19.50
2022-11-01T17:38:52.512Z,19.50
2022-11-01T17:41:21.185Z,19.50
2022-11-01T17:43:51.510Z,19.50
2022-11-01T17:46:26.227Z,19.40
2022-11-01T17:48:55.953Z,19.30
2022-11-01T17:51:24.263Z,19.20
2022-11-01T17:53:55.764Z,19.20
2022-11-01T17:56:24.680Z,19.10
2022-11-01T17:58:53.904Z,19.10
2022-11-01T18:01:22.733Z,19.00
2022-11-01T18:03:51.356Z,19.00
2022-11-01T18:06:21.181Z,19.00
2022-11-01T18:08:51.904Z,19.00
2022-11-01T18:11:35.786Z,19.00
2022-11-01T18:14:13.582Z,19.00
2022-11-01T18:16:48.347Z,19.10
2022-11-01T18:19:36.229Z,19.00
2022-11-01T18:22:14.287Z,19.00
2022-11-01T18:24:46.149Z,19.00
2022-11-01T18:27:19.409Z,18.90
2022-11-01T18:29:49.665Z,19.10
2022-11-01T18:32:21.058Z,19.10
2022-11-01T18:34:51.769Z,19.10
2022-11-01T18:37:25.876Z,19.00
2022-11-01T18:40:02.343Z,18.90
2022-11-01T18:42:30.999Z,18.80
2022-11-01T18:45:18.649Z,18.70
2022-11-01T18:47:53.252Z,18.60
2022-11-01T18:50:25.335Z,18.60
2022-11-01T18:53:02.785Z,18.60
2022-11-01T18:55:33.689Z,18.60
2022-11-01T18:58:09.469Z,18.40
2022-11-01T19:00:37.726Z,18.40
2022-11-01T19:03:14.023Z,18.30
2022-11-01T19:05:42.578Z,18.20
2022-11-01T19:08:22.864Z,18.10
2022-11-01T19:10:51.749Z,18.10
2022-11-01T19:13:27.248Z,18.00
2022-11-01T19:15:58.056Z,18.00
2022-11-01T19:18:26.691Z,17.90
2022-11-01T19:20:56.107Z,17.90
2022-11-01T19:23:34.904Z,17.90
2022-11-01T19:26:04.058Z,17.90
2022-11-01T19:28:37.660Z,17.90
2022-11-01T19:31:09.023Z,18.00
2022-11-01T19:33:40.144Z,17.90
2022-11-01T19:36:15.506Z,17.80
2022-11-01T19:38:45.532Z,17.80
2022-11-01T19:41:19.654Z,17.80
2022-11-01T19:43:47.706Z,17.80
2022-11-01T19:46:21.731Z,17.80
2022-11-01T19:48:51.989Z,17.70
2022-11-01T19:51:23.585Z,17.60
2022-11-01T19:53:55.353Z,17.60
2022-11-01T19:56:25.275Z,17.60
2022-11-01T19:58:57.476Z,17.60
2022-11-01T20:01:40.792Z,17.60
2022-11-01T20:04:24.461Z,17.50
2022-11-01T20:07:01.269Z,17.50
2022-11-01T20:09:32.402Z,17.50
2022-11-01T20:12:00.713Z,17.50
2022-11-01T20:14:29.253Z,17.50
2022-11-01T20:16:57.470Z,17.50
2022-11-01T20:19:25.800Z,17.60
2022-11-01T20:21:54.107Z,17.60
2022-11-01T20:24:22.443Z,17.60
2022-11-01T20:26:52.223Z,17.60
2022-11-01T20:29:20.545Z,17.60
2022-11-01T20:31:48.783Z,17.60
2022-11-01T20:34:17.118Z,17.60
2022-11-01T20:37:02.186Z,17.50
2022-11-01T20:39:36.462Z,17.50
2022-11-01T20:42:08.041Z,17.50
2022-11-01T20:44:36.294Z,17.50
2022-11-01T20:47:04.521Z,17.50
2022-11-01T20:49:32.797Z,17.40
2022-11-01T20:52:26.051Z,17.40
2022-11-01T20:54:51.968Z,17.40
2022-11-01T20:57:28.164Z,17.30
2022-11-01T20:59:56.887Z,17.20
2022-11-01T21:02:25.076Z,17.20
2022-11-01T21:05:00.853Z,17.10
2022-11-01T21:07:31.081Z,17.10
2022-11-01T21:10:01.705Z,17.10
2022-11-01T21:12:44.913Z,17.00
2022-11-01T21:15:35.089Z,17.00
2022-11-01T21:18:44.232Z,16.90
2022-11-01T21:21:27.413Z,16.90
2022-11-01T21:23:56.046Z,16.90
2022-11-01T21:26:26.616Z,16.90
2022-11-01T21:28:59.706Z,16.90
2022-11-01T21:31:31.786Z,16.80
2022-11-01T21:34:04.300Z,16.90
2022-11-01T21:36:35.906Z,17.00
2022-11-01T21:39:10.138Z,16.90
2022-11-01T21:41:44.225Z,16.90
2022-11-01T21:44:22.753Z,16.90
2022-11-01T21:46:51.831Z,16.90
2022-11-01T21:49:25.483Z,16.90
2022-11-01T21:51:53.919Z,16.80
2022-11-01T21:54:22.304Z,16.80
2022-11-01T21:56:50.497Z,16.80
2022-11-01T21:59:19.999Z,16.80
2022-11-01T22:01:48.879Z,16.80
2022-11-01T22:04:17.377Z,16.80
2022-11-01T22:06:45.774Z,16.80
2022-11-01T22:09:13.797Z,16.80
2022-11-01T22:11:44.245Z,16.80
2022-11-01T22:14:12.702Z,16.70
2022-11-01T22:16:42.238Z,16.70
2022-11-01T22:19:10.671Z,16.70
2022-11-01T22:21:38.949Z,16.70
2022-11-01T22:24:07.431Z,16.70
2022-11-01T22:26:35.879Z,16.70
2022-11-01T22:29:04.080Z,16.60
2022-11-01T22:31:32.459Z,16.60
2022-11-01T22:34:05.217Z,16.50
2022-11-01T22:36:37.300Z,16.40
2022-11-01T22:39:14.157Z,16.50
2022-11-01T22:41:43.165Z,16.50
2022-11-01T22:44:17.009Z,16.50
2022-11-01T22:46:47.908Z,16.50
2022-11-01T22:49:23.677Z,16.40
2022-11-01T22:51:54.612Z,16.50
2022-11-01T22:54:31.388Z,16.50
2022-11-01T22:57:10.609Z,16.50
2022-11-01T22:59:42.549Z,16.50
2022-11-01T23:02:27.988Z,16.50
2022-11-01T23:05:02.581Z,16.50
2022-11-01T23:07:35.764Z,16.50
2022-11-01T23:10:07.747Z,16.50
2022-11-01T23:12:55.374Z,16.50
2022-11-01T23:15:28.649Z,16.50
2022-11-01T23:18:03.800Z,16.50
2022-11-01T23:20:37.987Z,16.50
2022-11-01T23:23:06.856Z,16.50
2022-11-01T23:25:35.456Z,16.50
2022-11-01T23:28:03.776Z,16.50
2022-11-01T23:30:34.471Z,16.50
2022-11-01T23:33:02.973Z,16.40
2022-11-01T23:35:31.497Z,16.40
2022-11-01T23:38:01.472Z,16.40
2022-11-01T23:40:34.409Z,16.40
2022-11-01T23:43:02.891Z,16.40
2022-11-01T23:45:34.527Z,16.30
2022-11-01T23:48:03.917Z,16.30
2022-11-01T23:50:35.461Z,16.20
2022-11-01T23:53:08.145Z,16.20
2022-11-01T23:55:39.579Z,16.20
2022-11-01T23:58:11.236Z,16.20
